sensor_id;sensor_type;location;lat;lon;timestamp;pressure;altitude;pressure_sealevel;temperature;humidity
20043;BME280;10182;52.896;6.496;2022-12-29T00:02:53;99713.38;;;9.07;100.00
20043;BME280;10182;52.896;6.496;2022-12-29T00:07:56;99705.72;;;9.03;100.00
20043;BME280;10182;52.896;6.496;2022-12-29T00:12:57;99696.00;;;9.03;100.00
20043;BME280;10182;52.896;6.496;2022-12-29T00:18:16;99696.88;;;9.04;100.00
20043;BME280;10182;52.896;6.496;2022-12-29T00:23:19;99702.25;;;9.02;100.00
20043;BME280;10182;52.896;6.496;2022-12-29T00:28:39;99690.63;;;9.05;100.00
20043;BME280;10182;52.896;6.496;2022-12-29T00:33:58;99685.19;;;9.08;100.00
20043;BME280;10182;52.896;6.496;2022-12-29T00:39:18;99665.59;;;9.12;100.00
20043;BME280;10182;52.896;6.496;2022-12-29T00:44:37;99652.19;;;9.15;100.00
20043;BME280;10182;52.896;6.496;2022-12-29T00:49:39;99655.69;;;9.15;100.00
20043;BME280;10182;52.896;6.496;2022-12-29T00:54:42;99642.31;;;9.19;100.00
20043;BME280;10182;52.896;6.496;2022-12-29T00:59:45;99638.06;;;9.16;100.00
20043;BME280;10182;52.896;6.496;2022-12-29T01:04:47;99635.31;;;9.18;100.00
20043;BME280;10182;52.896;6.496;2022-12-29T01:09:50;99644.84;;;9.20;100.00
20043;BME280;10182;52.896;6.496;2022-12-29T01:15:11;99628.91;;;9.22;100.00
20043;BME280;10182;52.896;6.496;2022-12-29T01:20:13;99626.28;;;9.22;100.00
20043;BME280;10182;52.896;6.496;2022-12-29T01:25:17;99617.03;;;9.29;100.00
20043;BME280;10182;52.896;6.496;2022-12-29T01:30:18;99607.97;;;9.33;100.00
20043;BME280;10182;52.896;6.496;2022-12-29T01:35:20;99606.84;;;9.37;100.00
20043;BME280;10182;52.896;6.496;2022-12-29T01:40:23;99589.97;;;9.40;100.00
20043;BME280;10182;52.896;6.496;2022-12-29T01:45:25;99590.53;;;9.45;100.00
20043;BME280;10182;52.896;6.496;2022-12-29T01:50:31;99586.09;;;9.45;100.00
20043;BME280;10182;52.896;6.496;2022-12-29T01:55:39;99580.63;;;9.48;100.00
20043;BME280;10182;52.896;6.496;2022-12-29T02:00:41;99574.19;;;9.53;100.00
20043;BME280;10182;52.896;6.496;2022-12-29T02:05:47;99566.84;;;9.58;100.00
20043;BME280;10182;52.896;6.496;2022-12-29T02:10:53;99557.88;;;9.60;100.00
20043;BME280;10182;52.896;6.496;2022-12-29T02:16:05;99548.63;;;9.68;100.00
20043;BME280;10182;52.896;6.496;2022-12-29T02:21:36;99543.63;;;9.63;100.00
20043;BME280;10182;52.896;6.496;2022-12-29T02:26:54;99541.75;;;9.65;100.00
20043;BME280;10182;52.896;6.496;2022-12-29T02:32:05;99551.25;;;9.68;100.00
20043;BME280;10182;52.896;6.496;2022-12-29T02:37:15;99550.53;;;9.65;100.00
20043;BME280;10182;52.896;6.496;2022-12-29T02:42:23;99552.59;;;9.60;100.00
20043;BME280;10182;52.896;6.496;2022-12-29T02:47:30;99544.97;;;9.56;100.00
20043;BME280;10182;52.896;6.496;2022-12-29T02:52:39;99545.13;;;9.53;100.00
20043;BME280;10182;52.896;6.496;2022-12-29T02:57:44;99534.38;;;9.56;100.00
20043;BME280;10182;52.896;6.496;2022-12-29T03:03:05;99543.44;;;9.52;100.00
20043;BME280;10182;52.896;6.496;2022-12-29T03:08:19;99551.19;;;9.55;100.00
20043;BME280;10182;52.896;6.496;2022-12-29T03:13:28;99549.22;;;9.58;100.00
20043;BME280;10182;52.896;6.496;2022-12-29T03:18:56;99554.84;;;9.52;100.00
20043;BME280;10182;52.896;6.496;2022-12-29T03:23:59;99550.41;;;9.53;100.00
20043;BME280;10182;52.896;6.496;2022-12-29T03:29:01;99548.63;;;9.53;100.00
20043;BME280;10182;52.896;6.496;2022-12-29T03:34:05;99543.53;;;9.50;100.00
20043;BME280;10182;52.896;6.496;2022-12-29T03:39:09;99527.31;;;9.42;100.00
20043;BME280;10182;52.896;6.496;2022-12-29T03:44:13;99519.91;;;9.47;100.00
20043;BME280;10182;52.896;6.496;2022-12-29T03:49:16;99505.56;;;9.51;100.00
20043;BME280;10182;52.896;6.496;2022-12-29T03:54:17;99524.19;;;9.49;100.00
20043;BME280;10182;52.896;6.496;2022-12-29T03:59:19;99546.19;;;9.50;100.00
20043;BME280;10182;52.896;6.496;2022-12-29T04:04:22;99537.38;;;9.49;100.00
20043;BME280;10182;52.896;6.496;2022-12-29T04:09:24;99543.16;;;9.42;100.00
20043;BME280;10182;52.896;6.496;2022-12-29T04:14:25;99532.13;;;9.35;100.00
20043;BME280;10182;52.896;6.496;2022-12-29T04:19:28;99541.16;;;9.31;100.00
20043;BME280;10182;52.896;6.496;2022-12-29T04:24:30;99553.66;;;9.13;100.00
20043;BME280;10182;52.896;6.496;2022-12-29T04:29:32;99556.28;;;8.98;100.00
20043;BME280;10182;52.896;6.496;2022-12-29T04:34:35;99560.50;;;8.87;100.00
20043;BME280;10182;52.896;6.496;2022-12-29T04:39:36;99569.72;;;8.79;100.00
20043;BME280;10182;52.896;6.496;2022-12-29T04:44:38;99573.81;;;8.69;100.00
20043;BME280;10182;52.896;6.496;2022-12-29T04:49:41;99570.25;;;8.70;100.00
20043;BME280;10182;52.896;6.496;2022-12-29T04:54:43;99566.06;;;8.82;100.00
20043;BME280;10182;52.896;6.496;2022-12-29T04:59:44;99570.88;;;8.90;100.00
20043;BME280;10182;52.896;6.496;2022-12-29T05:04:47;99553.06;;;8.93;100.00
20043;BME280;10182;52.896;6.496;2022-12-29T05:09:49;99539.59;;;8.98;100.00
20043;BME280;10182;52.896;6.496;2022-12-29T05:14:51;99542.31;;;8.96;100.00
20043;BME280;10182;52.896;6.496;2022-12-29T05:19:54;99543.72;;;8.88;100.00
20043;BME280;10182;52.896;6.496;2022-12-29T05:24:55;99532.47;;;8.84;100.00
20043;BME280;10182;52.896;6.496;2022-12-29T05:29:57;99551.22;;;8.79;100.00
20043;BME280;10182;52.896;6.496;2022-12-29T05:35:00;99564.72;;;8.75;100.00
20043;BME280;10182;52.896;6.496;2022-12-29T05:40:03;99566.56;;;8.73;100.00
20043;BME280;10182;52.896;6.496;2022-12-29T05:45:06;99557.97;;;8.69;100.00
20043;BME280;10182;52.896;6.496;2022-12-29T05:50:09;99562.31;;;8.70;100.00
20043;BME280;10182;52.896;6.496;2022-12-29T05:55:11;99572.38;;;8.63;100.00
20043;BME280;10182;52.896;6.496;2022-12-29T06:00:14;99569.66;;;8.65;100.00
20043;BME280;10182;52.896;6.496;2022-12-29T06:05:17;99579.09;;;8.69;100.00
20043;BME280;10182;52.896;6.496;2022-12-29T06:10:19;99588.53;;;8.73;100.00
20043;BME280;10182;52.896;6.496;2022-12-29T06:15:20;99591.63;;;8.66;100.00
20043;BME280;10182;52.896;6.496;2022-12-29T06:20:24;99613.34;;;8.71;100.00
20043;BME280;10182;52.896;6.496;2022-12-29T06:25:25;99593.50;;;8.63;100.00
20043;BME280;10182;52.896;6.496;2022-12-29T06:30:27;99610.34;;;8.61;100.00
20043;BME280;10182;52.896;6.496;2022-12-29T06:35:30;99616.50;;;8.61;100.00
20043;BME280;10182;52.896;6.496;2022-12-29T06:40:32;99622.63;;;8.62;100.00
20043;BME280;10182;52.896;6.496;2022-12-29T06:45:33;99629.53;;;8.64;100.00
20043;BME280;10182;52.896;6.496;2022-12-29T06:50:37;99621.28;;;8.71;100.00
20043;BME280;10182;52.896;6.496;2022-12-29T06:55:39;99629.63;;;8.63;100.00
20043;BME280;10182;52.896;6.496;2022-12-29T07:00:40;99634.72;;;8.66;100.00
20043;BME280;10182;52.896;6.496;2022-12-29T07:05:43;99641.97;;;8.62;100.00
20043;BME280;10182;52.896;6.496;2022-12-29T07:10:45;99626.72;;;8.68;100.00
20043;BME280;10182;52.896;6.496;2022-12-29T07:15:47;99632.84;;;8.68;100.00
20043;BME280;10182;52.896;6.496;2022-12-29T07:20:50;99642.31;;;8.56;100.00
20043;BME280;10182;52.896;6.496;2022-12-29T07:25:59;99640.34;;;8.60;100.00
20043;BME280;10182;52.896;6.496;2022-12-29T07:31:00;99645.72;;;8.58;100.00
20043;BME280;10182;52.896;6.496;2022-12-29T07:36:04;99643.13;;;8.57;100.00
20043;BME280;10182;52.896;6.496;2022-12-29T07:41:06;99655.84;;;8.66;100.00
20043;BME280;10182;52.896;6.496;2022-12-29T07:46:07;99655.41;;;8.58;100.00
20043;BME280;10182;52.896;6.496;2022-12-29T07:51:11;99643.41;;;8.52;100.00
20043;BME280;10182;52.896;6.496;2022-12-29T07:56:13;99662.16;;;8.48;100.00
20043;BME280;10182;52.896;6.496;2022-12-29T08:01:14;99657.44;;;8.53;100.00
20043;BME280;10182;52.896;6.496;2022-12-29T08:06:18;99646.81;;;8.54;100.00
20043;BME280;10182;52.896;6.496;2022-12-29T08:11:20;99658.84;;;8.60;100.00
20043;BME280;10182;52.896;6.496;2022-12-29T08:16:22;99649.22;;;8.59;100.00
20043;BME280;10182;52.896;6.496;2022-12-29T08:21:25;99655.00;;;8.66;100.00
20043;BME280;10182;52.896;6.496;2022-12-29T08:26:28;99664.94;;;8.60;100.00
20043;BME280;10182;52.896;6.496;2022-12-29T08:31:29;99665.97;;;8.58;100.00
20043;BME280;10182;52.896;6.496;2022-12-29T08:36:33;99651.56;;;8.63;100.00
20043;BME280;10182;52.896;6.496;2022-12-29T08:41:34;99655.50;;;8.72;100.00
20043;BME280;10182;52.896;6.496;2022-12-29T08:46:36;99658.06;;;8.74;100.00
20043;BME280;10182;52.896;6.496;2022-12-29T08:51:39;99642.81;;;8.79;100.00
20043;BME280;10182;52.896;6.496;2022-12-29T08:56:41;99660.25;;;8.81;100.00
20043;BME280;10182;52.896;6.496;2022-12-29T09:01:42;99655.84;;;8.82;100.00
20043;BME280;10182;52.896;6.496;2022-12-29T09:06:45;99641.75;;;8.81;100.00
20043;BME280;10182;52.896;6.496;2022-12-29T09:11:47;99660.94;;;8.69;100.00
20043;BME280;10182;52.896;6.496;2022-12-29T09:16:50;99654.63;;;8.72;100.00
20043;BME280;10182;52.896;6.496;2022-12-29T09:22:11;99668.94;;;8.68;100.00
20043;BME280;10182;52.896;6.496;2022-12-29T09:27:13;99675.84;;;8.54;100.00
20043;BME280;10182;52.896;6.496;2022-12-29T09:32:14;99680.28;;;8.54;100.00
20043;BME280;10182;52.896;6.496;2022-12-29T09:37:17;99671.44;;;8.55;100.00
20043;BME280;10182;52.896;6.496;2022-12-29T09:42:23;99691.88;;;8.67;100.00
20043;BME280;10182;52.896;6.496;2022-12-29T09:47:27;99687.78;;;8.61;100.00
20043;BME280;10182;52.896;6.496;2022-12-29T09:52:32;99701.47;;;8.52;100.00
20043;BME280;10182;52.896;6.496;2022-12-29T09:57:42;99721.69;;;8.36;100.00
20043;BME280;10182;52.896;6.496;2022-12-29T10:02:49;99716.91;;;8.26;100.00
20043;BME280;10182;52.896;6.496;2022-12-29T10:08:07;99729.72;;;8.17;100.00
20043;BME280;10182;52.896;6.496;2022-12-29T10:13:21;99724.84;;;8.09;100.00
20043;BME280;10182;52.896;6.496;2022-12-29T10:18:59;99740.91;;;8.04;100.00
20043;BME280;10182;52.896;6.496;2022-12-29T10:24:07;99740.47;;;7.96;100.00
20043;BME280;10182;52.896;6.496;2022-12-29T10:29:16;99746.81;;;7.92;100.00
20043;BME280;10182;52.896;6.496;2022-12-29T10:34:22;99749.84;;;8.02;100.00
20043;BME280;10182;52.896;6.496;2022-12-29T10:39:30;99758.75;;;7.99;100.00
20043;BME280;10182;52.896;6.496;2022-12-29T10:44:34;99759.38;;;8.04;100.00
20043;BME280;10182;52.896;6.496;2022-12-29T10:49:39;99765.41;;;8.06;100.00
20043;BME280;10182;52.896;6.496;2022-12-29T10:54:48;99781.81;;;7.95;100.00
20043;BME280;10182;52.896;6.496;2022-12-29T10:59:51;99785.06;;;8.01;100.00
20043;BME280;10182;52.896;6.496;2022-12-29T11:04:58;99794.59;;;8.03;100.00
20043;BME280;10182;52.896;6.496;2022-12-29T11:10:29;99795.06;;;8.11;100.00
20043;BME280;10182;52.896;6.496;2022-12-29T11:15:39;99797.75;;;8.27;100.00
20043;BME280;10182;52.896;6.496;2022-12-29T11:20:41;99823.25;;;8.44;100.00
20043;BME280;10182;52.896;6.496;2022-12-29T11:25:44;99829.09;;;8.51;100.00
20043;BME280;10182;52.896;6.496;2022-12-29T11:30:59;99841.66;;;8.46;100.00
20043;BME280;10182;52.896;6.496;2022-12-29T11:36:04;99840.44;;;8.36;100.00
20043;BME280;10182;52.896;6.496;2022-12-29T11:41:11;99849.53;;;8.30;100.00
20043;BME280;10182;52.896;6.496;2022-12-29T11:46:16;99861.25;;;8.24;100.00
20043;BME280;10182;52.896;6.496;2022-12-29T11:51:22;99871.94;;;8.21;100.00
20043;BME280;10182;52.896;6.496;2022-12-29T11:56:35;99883.19;;;8.25;100.00
20043;BME280;10182;52.896;6.496;2022-12-29T12:01:38;99894.28;;;8.32;100.00
20043;BME280;10182;52.896;6.496;2022-12-29T12:06:45;99895.47;;;8.43;100.00
20043;BME280;10182;52.896;6.496;2022-12-29T12:11:52;99894.31;;;8.49;100.00
20043;BME280;10182;52.896;6.496;2022-12-29T12:16:59;99907.25;;;8.71;100.00
20043;BME280;10182;52.896;6.496;2022-12-29T12:22:08;99907.66;;;8.63;100.00
20043;BME280;10182;52.896;6.496;2022-12-29T12:27:18;99926.38;;;8.59;100.00
20043;BME280;10182;52.896;6.496;2022-12-29T12:32:24;99937.56;;;8.46;100.00
20043;BME280;10182;52.896;6.496;2022-12-29T12:37:59;99948.78;;;8.33;100.00
20043;BME280;10182;52.896;6.496;2022-12-29T12:43:24;99956.88;;;8.47;100.00
20043;BME280;10182;52.896;6.496;2022-12-29T12:54:03;99971.25;;;8.59;100.00
20043;BME280;10182;52.896;6.496;2022-12-29T12:59:30;99978.53;;;8.54;100.00
20043;BME280;10182;52.896;6.496;2022-12-29T13:04:56;99973.09;;;8.57;100.00
20043;BME280;10182;52.896;6.496;2022-12-29T13:10:16;99978.63;;;8.70;100.00
20043;BME280;10182;52.896;6.496;2022-12-29T13:15:34;99990.50;;;8.61;100.00
20043;BME280;10182;52.896;6.496;2022-12-29T13:20:46;99991.44;;;8.60;100.00
20043;BME280;10182;52.896;6.496;2022-12-29T13:25:51;99985.38;;;8.58;100.00
20043;BME280;10182;52.896;6.496;2022-12-29T13:31:05;99989.47;;;8.46;100.00
20043;BME280;10182;52.896;6.496;2022-12-29T13:36:15;100001.31;;;8.37;100.00
20043;BME280;10182;52.896;6.496;2022-12-29T13:41:29;100012.50;;;8.42;100.00
20043;BME280;10182;52.896;6.496;2022-12-29T13:46:38;100012.00;;;8.53;100.00
20043;BME280;10182;52.896;6.496;2022-12-29T13:51:43;100019.56;;;8.42;100.00
20043;BME280;10182;52.896;6.496;2022-12-29T13:56:52;100022.59;;;8.34;100.00
20043;BME280;10182;52.896;6.496;2022-12-29T14:02:00;100028.88;;;8.32;100.00
20043;BME280;10182;52.896;6.496;2022-12-29T14:07:12;100030.38;;;8.18;100.00
20043;BME280;10182;52.896;6.496;2022-12-29T14:12:27;100043.72;;;8.15;100.00
20043;BME280;10182;52.896;6.496;2022-12-29T14:17:32;100049.19;;;8.10;100.00
20043;BME280;10182;52.896;6.496;2022-12-29T14:22:33;100053.94;;;8.04;100.00
20043;BME280;10182;52.896;6.496;2022-12-29T14:27:51;100046.78;;;8.06;100.00
20043;BME280;10182;52.896;6.496;2022-12-29T14:33:03;100057.44;;;8.04;100.00
20043;BME280;10182;52.896;6.496;2022-12-29T14:38:07;100052.38;;;8.00;100.00
20043;BME280;10182;52.896;6.496;2022-12-29T14:43:21;100065.34;;;8.04;100.00
20043;BME280;10182;52.896;6.496;2022-12-29T14:48:38;100056.59;;;8.04;100.00
20043;BME280;10182;52.896;6.496;2022-12-29T14:53:44;100056.84;;;7.97;100.00
20043;BME280;10182;52.896;6.496;2022-12-29T14:58:50;100072.81;;;7.94;100.00
20043;BME280;10182;52.896;6.496;2022-12-29T15:03:58;100085.59;;;7.85;100.00
20043;BME280;10182;52.896;6.496;2022-12-29T15:09:05;100084.00;;;7.81;100.00
20043;BME280;10182;52.896;6.496;2022-12-29T15:14:31;100082.22;;;7.81;100.00
20043;BME280;10182;52.896;6.496;2022-12-29T15:19:34;100080.00;;;7.72;100.00
20043;BME280;10182;52.896;6.496;2022-12-29T15:24:41;100078.22;;;7.72;100.00
20043;BME280;10182;52.896;6.496;2022-12-29T15:29:45;100080.28;;;7.66;100.00
20043;BME280;10182;52.896;6.496;2022-12-29T15:34:51;100096.28;;;7.61;100.00
20043;BME280;10182;52.896;6.496;2022-12-29T15:39:54;100090.50;;;7.53;100.00
20043;BME280;10182;52.896;6.496;2022-12-29T15:44:57;100105.63;;;7.49;100.00
20043;BME280;10182;52.896;6.496;2022-12-29T15:50:03;100108.44;;;7.44;100.00
20043;BME280;10182;52.896;6.496;2022-12-29T15:55:06;100113.03;;;7.39;100.00
20043;BME280;10182;52.896;6.496;2022-12-29T16:00:23;100111.22;;;7.41;100.00
20043;BME280;10182;52.896;6.496;2022-12-29T16:05:33;100115.34;;;7.47;100.00
20043;BME280;10182;52.896;6.496;2022-12-29T16:10:37;100122.94;;;7.55;100.00
20043;BME280;10182;52.896;6.496;2022-12-29T16:15:40;100117.53;;;7.58;100.00
20043;BME280;10182;52.896;6.496;2022-12-29T16:20:43;100126.09;;;7.63;100.00
20043;BME280;10182;52.896;6.496;2022-12-29T16:25:45;100117.53;;;7.58;100.00
20043;BME280;10182;52.896;6.496;2022-12-29T16:30:57;100139.44;;;7.58;100.00
20043;BME280;10182;52.896;6.496;2022-12-29T16:36:01;100176.44;;;7.57;100.00
20043;BME280;10182;52.896;6.496;2022-12-29T16:41:02;100190.56;;;7.34;100.00
20043;BME280;10182;52.896;6.496;2022-12-29T16:46:17;100136.84;;;6.52;100.00
20043;BME280;10182;52.896;6.496;2022-12-29T16:51:28;100153.56;;;6.28;100.00
20043;BME280;10182;52.896;6.496;2022-12-29T16:56:34;100133.34;;;6.06;100.00
20043;BME280;10182;52.896;6.496;2022-12-29T17:01:38;100150.16;;;6.02;100.00
20043;BME280;10182;52.896;6.496;2022-12-29T17:06:41;100176.69;;;5.94;100.00
20043;BME280;10182;52.896;6.496;2022-12-29T17:11:43;100175.25;;;5.85;100.00
20043;BME280;10182;52.896;6.496;2022-12-29T17:16:57;100174.38;;;5.85;100.00
20043;BME280;10182;52.896;6.496;2022-12-29T17:22:01;100182.19;;;5.86;100.00
20043;BME280;10182;52.896;6.496;2022-12-29T17:27:03;100175.84;;;5.93;100.00
20043;BME280;10182;52.896;6.496;2022-12-29T17:32:09;100181.81;;;5.97;100.00
20043;BME280;10182;52.896;6.496;2022-12-29T17:37:27;100189.19;;;6.13;100.00
20043;BME280;10182;52.896;6.496;2022-12-29T17:42:31;100199.94;;;6.30;100.00
20043;BME280;10182;52.896;6.496;2022-12-29T17:47:34;100209.13;;;6.42;100.00
20043;BME280;10182;52.896;6.496;2022-12-29T17:52:37;100203.41;;;6.54;100.00
20043;BME280;10182;52.896;6.496;2022-12-29T17:57:39;100215.25;;;6.66;100.00
20043;BME280;10182;52.896;6.496;2022-12-29T18:02:41;100221.13;;;6.73;100.00
20043;BME280;10182;52.896;6.496;2022-12-29T18:07:44;100227.06;;;6.78;100.00
20043;BME280;10182;52.896;6.496;2022-12-29T18:12:47;100221.75;;;6.80;100.00
20043;BME280;10182;52.896;6.496;2022-12-29T18:17:53;100233.94;;;6.82;100.00
20043;BME280;10182;52.896;6.496;2022-12-29T18:22:59;100242.56;;;6.86;100.00
20043;BME280;10182;52.896;6.496;2022-12-29T18:28:01;100248.69;;;6.86;100.00
20043;BME280;10182;52.896;6.496;2022-12-29T18:33:03;100256.69;;;6.83;100.00
20043;BME280;10182;52.896;6.496;2022-12-29T18:38:07;100251.34;;;6.85;100.00
20043;BME280;10182;52.896;6.496;2022-12-29T18:43:09;100251.50;;;6.82;100.00
20043;BME280;10182;52.896;6.496;2022-12-29T18:48:14;100251.50;;;6.82;100.00
20043;BME280;10182;52.896;6.496;2022-12-29T18:53:19;100260.59;;;6.73;100.00
20043;BME280;10182;52.896;6.496;2022-12-29T18:58:22;100265.00;;;6.72;100.00
20043;BME280;10182;52.896;6.496;2022-12-29T19:03:23;100269.28;;;6.75;100.00
20043;BME280;10182;52.896;6.496;2022-12-29T19:08:26;100274.00;;;6.67;100.00
20043;BME280;10182;52.896;6.496;2022-12-29T19:13:28;100276.94;;;6.59;100.00
20043;BME280;10182;52.896;6.496;2022-12-29T19:18:30;100282.34;;;6.54;100.00
20043;BME280;10182;52.896;6.496;2022-12-29T19:23:33;100296.66;;;6.47;100.00
20043;BME280;10182;52.896;6.496;2022-12-29T19:28:35;100301.22;;;6.42;100.00
20043;BME280;10182;52.896;6.496;2022-12-29T19:33:37;100305.91;;;6.34;100.00
20043;BME280;10182;52.896;6.496;2022-12-29T19:38:40;100310.25;;;6.35;100.00
20043;BME280;10182;52.896;6.496;2022-12-29T19:43:42;100311.03;;;6.37;100.00
20043;BME280;10182;52.896;6.496;2022-12-29T19:48:43;100317.00;;;6.42;100.00
20043;BME280;10182;52.896;6.496;2022-12-29T19:53:47;100314.69;;;6.33;100.00
20043;BME280;10182;52.896;6.496;2022-12-29T19:58:49;100315.91;;;6.24;100.00
20043;BME280;10182;52.896;6.496;2022-12-29T20:03:51;100322.25;;;6.18;100.00
20043;BME280;10182;52.896;6.496;2022-12-29T20:08:54;100323.91;;;6.21;100.00
20043;BME280;10182;52.896;6.496;2022-12-29T20:13:55;100319.53;;;6.20;100.00
20043;BME280;10182;52.896;6.496;2022-12-29T20:18:57;100330.25;;;6.15;100.00
20043;BME280;10182;52.896;6.496;2022-12-29T20:24:00;100341.50;;;6.19;100.00
20043;BME280;10182;52.896;6.496;2022-12-29T20:29:02;100339.88;;;6.15;100.00
20043;BME280;10182;52.896;6.496;2022-12-29T20:34:06;100338.88;;;6.19;100.00
20043;BME280;10182;52.896;6.496;2022-12-29T20:39:14;100341.66;;;6.14;100.00
20043;BME280;10182;52.896;6.496;2022-12-29T20:44:15;100348.00;;;6.08;100.00
20043;BME280;10182;52.896;6.496;2022-12-29T20:49:17;100359.59;;;6.03;100.00
20043;BME280;10182;52.896;6.496;2022-12-29T20:54:21;100356.78;;;6.07;100.00
20043;BME280;10182;52.896;6.496;2022-12-29T20:59:22;100370.13;;;6.01;100.00
20043;BME280;10182;52.896;6.496;2022-12-29T21:04:25;100385.06;;;6.01;100.00
20043;BME280;10182;52.896;6.496;2022-12-29T21:09:28;100375.50;;;5.98;100.00
20043;BME280;10182;52.896;6.496;2022-12-29T21:14:29;100385.25;;;5.95;100.00
20043;BME280;10182;52.896;6.496;2022-12-29T21:19:31;100393.38;;;5.87;100.00
20043;BME280;10182;52.896;6.496;2022-12-29T21:24:34;100391.50;;;5.90;100.00
20043;BME280;10182;52.896;6.496;2022-12-29T21:29:37;100409.88;;;5.90;100.00
20043;BME280;10182;52.896;6.496;2022-12-29T21:34:38;100403.88;;;5.87;100.00
20043;BME280;10182;52.896;6.496;2022-12-29T21:39:41;100416.94;;;5.90;100.00
20043;BME280;10182;52.896;6.496;2022-12-29T21:44:44;100421.22;;;5.92;100.00
20043;BME280;10182;52.896;6.496;2022-12-29T21:50:04;100402.69;;;5.99;100.00
20043;BME280;10182;52.896;6.496;2022-12-29T21:55:08;100414.59;;;6.09;100.00
20043;BME280;10182;52.896;6.496;2022-12-29T22:00:11;100418.03;;;6.11;100.00
20043;BME280;10182;52.896;6.496;2022-12-29T22:05:30;100414.81;;;6.03;100.00
20043;BME280;10182;52.896;6.496;2022-12-29T22:10:51;100424.63;;;5.96;100.00
20043;BME280;10182;52.896;6.496;2022-12-29T22:16:11;100436.69;;;6.03;100.00
20043;BME280;10182;52.896;6.496;2022-12-29T22:21:13;100444.41;;;6.08;100.00
20043;BME280;10182;52.896;6.496;2022-12-29T22:26:16;100457.44;;;6.13;100.00
20043;BME280;10182;52.896;6.496;2022-12-29T22:31:20;100462.69;;;6.13;100.00
20043;BME280;10182;52.896;6.496;2022-12-29T22:36:27;100481.16;;;6.11;100.00
20043;BME280;10182;52.896;6.496;2022-12-29T22:41:30;100482.25;;;6.04;100.00
20043;BME280;10182;52.896;6.496;2022-12-29T22:46:32;100495.63;;;5.96;100.00
20043;BME280;10182;52.896;6.496;2022-12-29T22:51:33;100505.41;;;5.91;100.00
20043;BME280;10182;52.896;6.496;2022-12-29T22:56:37;100518.94;;;5.79;100.00
20043;BME280;10182;52.896;6.496;2022-12-29T23:01:41;100519.06;;;5.74;100.00
20043;BME280;10182;52.896;6.496;2022-12-29T23:06:43;100523.47;;;5.73;100.00
20043;BME280;10182;52.896;6.496;2022-12-29T23:11:46;100539.19;;;5.75;100.00
20043;BME280;10182;52.896;6.496;2022-12-29T23:16:48;100549.84;;;5.70;100.00
20043;BME280;10182;52.896;6.496;2022-12-29T23:21:50;100548.13;;;5.69;100.00
20043;BME280;10182;52.896;6.496;2022-12-29T23:26:53;100559.72;;;5.62;100.00
20043;BME280;10182;52.896;6.496;2022-12-29T23:31:55;100563.97;;;5.66;100.00
20043;BME280;10182;52.896;6.496;2022-12-29T23:36:57;100568.25;;;5.70;100.00
20043;BME280;10182;52.896;6.496;2022-12-29T23:42:00;100579.84;;;5.63;100.00
20043;BME280;10182;52.896;6.496;2022-12-29T23:47:01;100588.75;;;5.57;100.00
20043;BME280;10182;52.896;6.496;2022-12-29T23:52:03;100588.13;;;5.48;100.00
20043;BME280;10182;52.896;6.496;2022-12-29T23:57:07;100592.63;;;5.44;100.00
